KUGN/UGN METAR and TAF weather

Enter ICAO airport designator
Station Type Date Time Source
KUGN METAR 2022/06/28 09:55 UTC NOAA

KUGN 280955Z AUTO 23006KT 10SM CLR 14/09 A3021 RMK AO2 SLP225 T01440094


Station Type Date Time Source
KUGN Decoded METAR 2022/06/28 09:55 UTC NOAA

CHICAGO/WAUKEGAN REGIONAL, IL, United States (KUGN) 42-25N 087-52W
Jun 28, 2022 - 05:55 AM EDT / 2022.06.28 0955 UTC
Wind: from the SW (230 degrees) at 7 MPH (6 KT):0
Visibility: 10 mile(s):0
Sky conditions: clear
Temperature: 57.9 F (14.4 C)
Dew Point: 48.9 F (9.4 C)
Relative Humidity: 71%
Pressure (altimeter): 30.21 in. Hg (1023 hPa)
ob: KUGN 280955Z AUTO 23006KT 10SM CLR 14/09 A3021 RMK AO2 SLP225 T01440094
cycle: 10

Station Type Date Time Source
KUGN TAF UTC NOAA

Error!

Example: see airport list